createdAt,value
2018-09-20T00:04:12.572Z,17.4
2018-09-20T00:14:26.752Z,17
2018-09-20T00:24:41.196Z,16.7
2018-09-20T00:34:56.693Z,16.2
2018-09-20T00:45:11.298Z,15.8
2018-09-20T00:55:26.331Z,15.9
2018-09-20T01:05:41.905Z,15.5
2018-09-20T01:15:56.256Z,15.7
2018-09-20T01:26:11.982Z,15.6
2018-09-20T01:36:26.862Z,15.7
2018-09-20T01:46:41.934Z,15.6
2018-09-20T01:56:56.188Z,15.5
2018-09-20T02:07:10.645Z,15.5
2018-09-20T02:17:26.029Z,15.4
2018-09-20T02:27:40.002Z,15.6
2018-09-20T02:37:55.579Z,15.2
2018-09-20T02:48:10.988Z,15
2018-09-20T02:58:24.917Z,15.2
2018-09-20T03:08:39.992Z,15
2018-09-20T03:18:55.433Z,15
2018-09-20T03:29:09.678Z,14.9
2018-09-20T03:39:23.654Z,14.5
2018-09-20T03:49:38.569Z,14.7
2018-09-20T03:59:54.263Z,14.5
2018-09-20T04:10:08.690Z,14.3
2018-09-20T04:20:22.505Z,14.4
2018-09-20T04:30:36.257Z,14.3
2018-09-20T04:40:50.167Z,14
2018-09-20T04:51:04.835Z,14
2018-09-20T05:01:22.273Z,13.8
2018-09-20T05:11:34.745Z,14.1
2018-09-20T05:21:49.220Z,14.1
2018-09-20T05:32:04.709Z,14.2
2018-09-20T05:42:18.578Z,14
2018-09-20T05:52:33.327Z,14.2
2018-09-20T06:02:48.028Z,14.5
2018-09-20T06:13:03.292Z,14.7
2018-09-20T06:23:17.418Z,15.3
2018-09-20T06:43:48.884Z,17.4
2018-09-20T06:54:03.406Z,17.8
2018-09-20T07:04:17.567Z,18.3
2018-09-20T07:14:31.538Z,19.4
2018-09-20T07:24:46.288Z,20.2
2018-09-20T07:35:00.964Z,20.9
2018-09-20T07:45:15.227Z,21.5
2018-09-20T07:55:30.658Z,21.3
2018-09-20T08:05:46.226Z,21.6
2018-09-20T08:16:00.080Z,21
2018-09-20T08:26:15.782Z,22
2018-09-20T08:36:30.450Z,21.6
2018-09-20T08:46:44.686Z,23.1
2018-09-20T08:56:59.228Z,23
2018-09-20T09:07:14.397Z,23.4
2018-09-20T09:17:29.883Z,23.6
2018-09-20T09:27:45.577Z,24.5
2018-09-20T09:38:00.911Z,25.3
2018-09-20T09:48:14.745Z,24.4
2018-09-20T09:58:30.471Z,24.3
2018-09-20T10:08:44.733Z,24.8
2018-09-20T10:18:59.710Z,24.2
2018-09-20T10:29:14.124Z,25.1
2018-09-20T10:39:29.514Z,25.4
2018-09-20T10:49:44.151Z,24.8
2018-09-20T10:59:59.459Z,25.5
2018-09-20T11:10:13.820Z,25.4
2018-09-20T11:20:29.393Z,24.9
2018-09-20T11:30:44.732Z,25.4
2018-09-20T11:40:59.388Z,25.7
2018-09-20T11:51:14.468Z,25.4
2018-09-20T12:01:30.956Z,26.3
2018-09-20T12:11:45.068Z,25
2018-09-20T12:21:59.460Z,25.7
2018-09-20T12:32:14.953Z,26.2
2018-09-20T12:42:29.851Z,26.7
2018-09-20T12:52:43.950Z,26.2
2018-09-20T13:02:58.227Z,26.4
2018-09-20T13:13:13.691Z,25.8
2018-09-20T13:23:28.681Z,26.8
2018-09-20T13:33:44.433Z,26.2
2018-09-20T13:44:00.308Z,26.6
2018-09-20T13:54:15.369Z,26.5
2018-09-20T14:04:30.413Z,26.8
2018-09-20T14:14:45.496Z,27
2018-09-20T14:25:00.762Z,27
2018-09-20T14:35:16.627Z,26.4
2018-09-20T14:45:31.264Z,27
2018-09-20T14:55:47.093Z,26.4
2018-09-20T15:06:02.816Z,26.4
2018-09-20T15:16:18.580Z,26.5
2018-09-20T15:26:32.478Z,26.1
2018-09-20T15:36:47.475Z,26.1
2018-09-20T15:47:01.542Z,26
2018-09-20T15:57:16.413Z,26.1
2018-09-20T16:07:30.547Z,26.2
2018-09-20T16:17:46.531Z,25.7
2018-09-20T16:28:00.758Z,25.5
2018-09-20T16:38:15.634Z,24.6
2018-09-20T16:48:29.878Z,24.3
2018-09-20T16:58:44.789Z,23.9
2018-09-20T17:08:59.190Z,23.5
2018-09-20T17:19:14.622Z,22.8
2018-09-20T17:29:29.586Z,22
2018-09-20T17:39:44.009Z,21.3
2018-09-20T17:49:58.480Z,20.7
2018-09-20T18:00:13.561Z,20.6
2018-09-20T18:10:27.332Z,20
2018-09-20T18:20:42.171Z,19.7
2018-09-20T18:30:57.833Z,19.3
2018-09-20T18:41:12.545Z,18.7
2018-09-20T18:51:27.145Z,18.3
2018-09-20T19:01:41.168Z,18
2018-09-20T19:11:56.146Z,17.9
2018-09-20T19:22:11.281Z,17.9
2018-09-20T19:32:26.274Z,17.8
2018-09-20T19:42:41.021Z,17.5
2018-09-20T19:52:54.813Z,17.9
2018-09-20T20:03:09.124Z,17.5
2018-09-20T20:13:23.995Z,18.3
2018-09-20T20:23:38.097Z,19
2018-09-20T20:33:51.884Z,19
2018-09-20T20:44:05.914Z,18.9
2018-09-20T20:54:21.690Z,18.5
2018-09-20T21:04:35.374Z,18.3
2018-09-20T21:14:49.288Z,18.5
2018-09-20T21:25:03.340Z,18.3
2018-09-20T21:35:17.107Z,18.1
2018-09-20T21:45:32.763Z,18.9
2018-09-20T21:55:48.018Z,18.9
2018-09-20T22:06:02.833Z,18.9
2018-09-20T22:16:17.560Z,18.9
2018-09-20T22:26:32.210Z,19
2018-09-20T22:36:45.932Z,19.3
2018-09-20T22:46:59.755Z,19.6
2018-09-20T22:57:14.022Z,19.7
2018-09-20T23:07:29.773Z,19.6
2018-09-20T23:17:43.592Z,19.8
2018-09-20T23:27:57.708Z,19.8
2018-09-20T23:38:12.095Z,19.9
2018-09-20T23:48:26.099Z,19.7
2018-09-20T23:58:40.047Z,19.6
